createdAt,value
2018-05-26T00:00:13.042Z,95783.21
2018-05-26T00:02:42.097Z,95784.30
2018-05-26T00:05:11.155Z,95781.61
2018-05-26T00:07:40.206Z,95785.13
2018-05-26T00:10:09.272Z,95780.22
2018-05-26T00:12:38.313Z,95777.45
2018-05-26T00:15:07.522Z,95776.68
2018-05-26T00:17:36.922Z,95777.38
2018-05-26T00:25:21.405Z,95773.38
2018-05-26T00:30:27.298Z,95778.09
2018-05-26T00:32:56.350Z,95773.11
2018-05-26T00:35:25.423Z,95774.80
2018-05-26T00:37:54.489Z,95772.84
2018-05-26T00:40:23.604Z,95775.16
2018-05-26T00:42:52.644Z,95780.55
2018-05-26T00:45:21.736Z,95780.11
2018-05-26T00:50:28.537Z,95775.64
2018-05-26T00:52:57.655Z,95774.23
2018-05-26T00:55:27.626Z,95772.89
2018-05-26T00:57:56.788Z,95773.42
2018-05-26T01:00:27.987Z,95769.33
2018-05-26T01:02:57.046Z,95770.07
2018-05-26T01:05:26.147Z,95768.60
2018-05-26T01:07:55.305Z,95769.93
2018-05-26T01:10:25.374Z,95769.39
2018-05-26T01:12:54.453Z,95771.30
2018-05-26T01:17:59.361Z,95775.59
2018-05-26T01:20:28.428Z,95777.08
2018-05-26T01:22:57.487Z,95775.16
2018-05-26T01:25:26.735Z,95777.81
2018-05-26T01:27:55.922Z,95782.18
2018-05-26T01:30:25.871Z,95783.67
2018-05-26T01:32:54.925Z,95785.69
2018-05-26T01:35:23.994Z,95787.33
2018-05-26T01:37:53.285Z,95788.80
2018-05-26T01:40:27.461Z,95791.44
2018-05-26T01:42:56.532Z,95792.32
2018-05-26T01:45:28.606Z,95802.36
2018-05-26T01:47:57.669Z,95804.41
2018-05-26T01:50:27.844Z,95800.12
2018-05-26T01:52:56.889Z,95796.23
2018-05-26T01:55:26.049Z,95800.91
2018-05-26T01:57:55.105Z,95798.68
2018-05-26T02:00:24.223Z,95800.52
2018-05-26T02:02:53.344Z,95799.70
2018-05-26T02:07:58.173Z,95801.02
2018-05-26T02:14:08.691Z,95800.94
2018-05-26T02:16:45.505Z,95794.76
2018-05-26T02:19:16.841Z,95796.28
2018-05-26T02:21:45.870Z,95792.31
2018-05-26T02:24:15.818Z,95789.95
2018-05-26T02:29:21.375Z,95797.52
2018-05-26T02:31:50.442Z,95796.25
2018-05-26T02:36:55.178Z,95802.27
2018-05-26T02:42:00.170Z,95802.21
2018-05-26T02:44:36.991Z,95801.11
2018-05-26T02:47:08.110Z,95794.47
2018-05-26T02:49:37.222Z,95790.31
2018-05-26T02:54:52.861Z,95793.08
2018-05-26T02:57:35.242Z,95791.72
2018-05-26T03:00:04.482Z,95796.82
2018-05-26T03:07:52.721Z,95801.87
2018-05-26T03:10:27.199Z,95804.44
2018-05-26T03:13:01.778Z,95808.49
2018-05-26T03:15:34.370Z,95812.48
2018-05-26T03:18:10.826Z,95815.19
2018-05-26T03:20:47.094Z,95821.38
2018-05-26T03:23:24.965Z,95817.76
2018-05-26T03:25:54.035Z,95816.41
2018-05-26T03:28:26.577Z,95819.07
2018-05-26T03:30:56.579Z,95821.15
2018-05-26T03:33:30.358Z,95824.73
2018-05-26T03:36:00.326Z,95827.38
2018-05-26T03:38:29.470Z,95825.89
2018-05-26T03:40:58.753Z,95830.38
2018-05-26T03:43:27.805Z,95831.85
2018-05-26T03:45:56.895Z,95833.02
2018-05-26T03:48:29.164Z,95834.67
2018-05-26T03:50:58.429Z,95832.44
2018-05-26T03:53:32.608Z,95825.63
2018-05-26T03:56:19.469Z,95829.55
2018-05-26T03:59:07.105Z,95827.06
2018-05-26T04:01:36.198Z,95826.23
2018-05-26T04:04:05.323Z,95825.67
2018-05-26T04:06:42.465Z,95829.08
2018-05-26T04:09:20.181Z,95830.52
2018-05-26T04:11:49.388Z,95835.31
2018-05-26T04:14:19.299Z,95836.62
2018-05-26T04:16:48.350Z,95832.77
2018-05-26T04:19:19.391Z,95831.91
2018-05-26T04:21:49.162Z,95834.64
2018-05-26T04:24:20.498Z,95833.20
2018-05-26T04:26:49.549Z,95838.03
2018-05-26T04:31:54.826Z,95837.01
2018-05-26T04:34:25.838Z,95840.42
2018-05-26T04:36:55.220Z,95843.11
2018-05-26T04:39:27.252Z,95844.34
2018-05-26T04:41:56.325Z,95849.77
2018-05-26T04:44:29.805Z,95852.83
2018-05-26T04:46:58.875Z,95855.64
2018-05-26T04:49:32.581Z,95849.42
2018-05-26T04:52:01.653Z,95853.41
2018-05-26T04:54:31.556Z,95849.90
2018-05-26T04:57:00.622Z,95848.27
2018-05-26T04:59:31.697Z,95845.89
2018-05-26T05:02:01.198Z,95843.00
2018-05-26T05:04:34.572Z,95841.14
2018-05-26T05:07:03.633Z,95839.56
2018-05-26T05:12:09.888Z,95837.84
2018-05-26T05:14:38.947Z,95834.94
2018-05-26T05:17:08.068Z,95836.61
2018-05-26T05:19:37.117Z,95842.61
2018-05-26T05:24:41.979Z,95848.09
2018-05-26T05:27:11.292Z,95849.67
2018-05-26T05:29:40.475Z,95851.02
2018-05-26T05:32:09.848Z,95851.65
2018-05-26T05:34:39.979Z,95855.41
2018-05-26T05:39:45.942Z,95858.56
2018-05-26T05:42:19.493Z,95856.50
2018-05-26T05:44:48.905Z,95858.10
2018-05-26T05:47:22.922Z,95859.27
2018-05-26T05:49:52.998Z,95862.55
2018-05-26T05:52:22.042Z,95860.09
2018-05-26T05:54:52.124Z,95859.77
2018-05-26T05:57:22.134Z,95855.65
2018-05-26T06:02:26.911Z,95854.27
2018-05-26T06:04:56.443Z,95853.97
2018-05-26T06:07:25.497Z,95855.91
2018-05-26T06:09:54.553Z,95853.66
2018-05-26T06:15:00.626Z,95855.39
2018-05-26T06:17:29.614Z,95857.64
2018-05-26T06:19:59.233Z,95856.16
2018-05-26T06:22:28.281Z,95856.02
2018-05-26T06:24:57.757Z,95853.41
2018-05-26T06:27:26.825Z,95855.13
2018-05-26T06:29:56.224Z,95858.39
2018-05-26T06:32:25.291Z,95858.43
2018-05-26T06:34:54.746Z,95857.61
2018-05-26T06:37:23.802Z,95860.80
2018-05-26T06:39:52.858Z,95863.52
2018-05-26T06:42:22.263Z,95860.49
2018-05-26T06:47:27.174Z,95856.48
2018-05-26T06:49:56.206Z,95856.72
2018-05-26T06:52:25.251Z,95852.52
2018-05-26T06:54:54.307Z,95854.79
2018-05-26T06:57:23.626Z,95856.38
2018-05-26T07:05:04.338Z,95866.57
2018-05-26T07:07:33.677Z,95870.02
2018-05-26T07:10:02.744Z,95870.67
2018-05-26T07:12:32.462Z,95875.34
2018-05-26T07:15:01.550Z,95874.36
2018-05-26T07:20:06.526Z,95881.33
2018-05-26T07:22:36.466Z,95876.23
2018-05-26T07:25:05.579Z,95875.16
2018-05-26T07:27:35.129Z,95873.98
2018-05-26T07:30:04.173Z,95872.95
2018-05-26T07:32:33.853Z,95864.95
2018-05-26T07:35:02.909Z,95863.83
2018-05-26T07:37:32.062Z,95861.48
2018-05-26T07:40:01.126Z,95858.72
2018-05-26T07:42:30.202Z,95856.30
2018-05-26T07:44:59.278Z,95854.38
2018-05-26T07:47:28.297Z,95858.09
2018-05-26T07:52:33.877Z,95858.94
2018-05-26T07:55:02.930Z,95858.95
2018-05-26T07:57:35.379Z,95861.67
2018-05-26T08:00:06.099Z,95858.87
2018-05-26T08:02:36.341Z,95859.61
2018-05-26T08:07:41.266Z,95867.20
2018-05-26T08:10:10.857Z,95870.31
2018-05-26T08:12:41.267Z,95870.05
2018-05-26T08:15:10.818Z,95866.47
2018-05-26T08:17:40.439Z,95870.30
2018-05-26T08:20:09.489Z,95873.12
2018-05-26T08:22:39.616Z,95868.13
2018-05-26T08:25:14.483Z,95874.40
2018-05-26T08:27:43.539Z,95875.75
2018-05-26T08:30:12.608Z,95871.17
2018-05-26T08:32:42.182Z,95869.67
2018-05-26T08:35:11.251Z,95870.20
2018-05-26T08:37:40.829Z,95862.97
2018-05-26T08:40:09.898Z,95866.61
2018-05-26T08:42:39.293Z,95860.14
2018-05-26T08:45:08.349Z,95869.00
2018-05-26T08:47:37.585Z,95871.95
2018-05-26T08:52:43.328Z,95881.14
2018-05-26T08:55:12.341Z,95882.75
2018-05-26T08:57:42.040Z,95881.95
2018-05-26T09:00:11.116Z,95885.39
2018-05-26T09:02:40.557Z,95890.78
2018-05-26T09:05:09.600Z,95893.45
2018-05-26T09:07:39.249Z,95892.42
2018-05-26T09:10:08.281Z,95894.09
2018-05-26T09:12:37.921Z,95886.30
2018-05-26T09:15:06.969Z,95889.64
2018-05-26T09:17:36.646Z,95888.94
2018-05-26T09:22:41.519Z,95884.08
2018-05-26T09:25:11.032Z,95884.06
2018-05-26T09:27:40.044Z,95882.58
2018-05-26T09:30:09.902Z,95882.52
2018-05-26T09:35:15.164Z,95879.39
2018-05-26T09:37:44.331Z,95876.98
2018-05-26T09:42:50.054Z,95884.69
2018-05-26T09:45:19.235Z,95883.95
2018-05-26T09:47:49.775Z,95881.41
2018-05-26T09:50:19.072Z,95878.02
2018-05-26T09:52:49.409Z,95872.70
2018-05-26T09:55:19.101Z,95878.54
2018-05-26T09:57:49.297Z,95875.90
2018-05-26T10:00:19.150Z,95871.94
2018-05-26T10:02:56.425Z,95869.03
2018-05-26T10:05:25.473Z,95866.25
2018-05-26T10:07:56.504Z,95865.16
2018-05-26T10:10:25.557Z,95863.59
2018-05-26T10:12:54.767Z,95860.22
2018-05-26T10:15:23.811Z,95859.17
2018-05-26T10:17:53.228Z,95855.84
2018-05-26T10:20:22.295Z,95859.28
2018-05-26T10:22:52.165Z,95859.17
2018-05-26T10:27:57.258Z,95862.55
2018-05-26T10:30:26.304Z,95861.50
2018-05-26T10:32:55.763Z,95861.10
2018-05-26T10:35:24.793Z,95851.67
2018-05-26T10:37:54.393Z,95853.81
2018-05-26T10:40:23.575Z,95859.91
2018-05-26T10:42:53.563Z,95865.16
2018-05-26T10:45:39.467Z,95862.37
2018-05-26T10:48:08.770Z,95863.36
2018-05-26T10:50:37.789Z,95860.27
2018-05-26T10:53:07.723Z,95847.09
2018-05-26T10:55:36.765Z,95851.26
2018-05-26T10:58:05.811Z,95862.97
2018-05-26T11:00:34.862Z,95864.54
2018-05-26T11:03:03.912Z,95868.17
2018-05-26T11:05:32.953Z,95862.59
2018-05-26T11:08:01.997Z,95868.44
2018-05-26T11:10:32.509Z,95864.88
2018-05-26T11:13:01.567Z,95870.09
2018-05-26T11:15:31.336Z,95869.34
2018-05-26T11:18:00.506Z,95869.00
2018-05-26T11:20:29.517Z,95867.75
2018-05-26T11:22:58.566Z,95868.03
2018-05-26T11:25:28.136Z,95874.20
2018-05-26T11:27:57.174Z,95869.06
2018-05-26T11:30:26.643Z,95868.27
2018-05-26T11:33:02.725Z,95862.23
2018-05-26T11:35:40.884Z,95857.33
2018-05-26T11:38:21.890Z,95858.41
2018-05-26T11:41:01.958Z,95857.63
2018-05-26T11:43:41.552Z,95854.20
2018-05-26T11:46:11.386Z,95851.45
2018-05-26T11:48:40.565Z,95851.17
2018-05-26T11:51:09.618Z,95844.69
2018-05-26T11:56:13.965Z,95853.09
2018-05-26T11:58:43.960Z,95851.85
2018-05-26T12:01:12.999Z,95848.41
2018-05-26T12:03:42.793Z,95854.65
2018-05-26T12:06:11.873Z,95845.86
2018-05-26T12:08:41.693Z,95845.98
2018-05-26T12:11:10.750Z,95852.95
2018-05-26T12:13:39.791Z,95844.47
2018-05-26T12:16:08.830Z,95850.11
2018-05-26T12:18:38.351Z,95853.84
2018-05-26T12:21:07.415Z,95856.23
2018-05-26T12:23:36.473Z,95861.61
2018-05-26T12:26:05.881Z,95852.74
2018-05-26T12:28:35.211Z,95857.43
2018-05-26T12:31:04.315Z,95855.06
2018-05-26T12:33:34.146Z,95855.83
2018-05-26T12:36:03.237Z,95853.80
2018-05-26T12:38:32.890Z,95860.44
2018-05-26T12:41:02.025Z,95862.95
2018-05-26T12:43:31.062Z,95857.75
2018-05-26T12:46:00.523Z,95857.98
2018-05-26T12:48:29.581Z,95856.66
2018-05-26T12:50:59.556Z,95859.53
2018-05-26T12:53:28.605Z,95854.00
2018-05-26T12:55:59.020Z,95853.86
2018-05-26T13:01:04.320Z,95859.88
2018-05-26T13:03:33.652Z,95851.95
2018-05-26T13:06:03.323Z,95844.52
2018-05-26T13:08:32.419Z,95842.19
2018-05-26T13:11:02.029Z,95840.06
2018-05-26T13:13:31.169Z,95841.19
2018-05-26T13:16:00.910Z,95833.02
2018-05-26T13:21:05.881Z,95837.25
2018-05-26T13:23:34.973Z,95833.57
2018-05-26T13:26:04.439Z,95829.59
2018-05-26T13:28:33.481Z,95828.06
2018-05-26T13:31:03.117Z,95831.61
2018-05-26T13:36:08.279Z,95820.44
2018-05-26T13:41:13.672Z,95817.84
2018-05-26T13:43:42.710Z,95827.38
2018-05-26T13:46:12.041Z,95817.78
2018-05-26T13:48:41.093Z,95818.88
2018-05-26T13:51:23.823Z,95813.39
2018-05-26T13:54:04.729Z,95816.95
2018-05-26T13:56:46.150Z,95816.90
2018-05-26T14:02:14.919Z,95810.83
2018-05-26T14:07:25.054Z,95808.88
2018-05-26T14:12:33.855Z,95799.98
2018-05-26T14:15:05.725Z,95804.38
2018-05-26T14:17:37.771Z,95802.05
2018-05-26T14:20:09.359Z,95808.17
2018-05-26T14:22:42.013Z,95800.94
2018-05-26T14:25:13.252Z,95795.15
2018-05-26T14:27:45.284Z,95791.78
2018-05-26T14:30:16.533Z,95795.98
2018-05-26T14:32:48.746Z,95796.59
2018-05-26T14:35:21.065Z,95802.25
2018-05-26T14:37:53.179Z,95795.98
2018-05-26T14:40:25.216Z,95792.22
2018-05-26T14:42:57.703Z,95790.94
2018-05-26T14:45:30.727Z,95787.36
2018-05-26T14:50:40.399Z,95788.66
2018-05-26T14:53:11.499Z,95782.27
2018-05-26T14:55:44.962Z,95790.72
2018-05-26T14:58:15.907Z,95796.90
2018-05-26T15:00:47.749Z,95796.95
2018-05-26T15:03:18.939Z,95799.67
2018-05-26T15:05:47.989Z,95800.44
2018-05-26T15:08:17.028Z,95805.11
2018-05-26T15:10:46.081Z,95800.00
2018-05-26T15:13:15.202Z,95800.75
2018-05-26T15:15:44.174Z,95797.38
2018-05-26T15:18:13.218Z,95792.26
2018-05-26T15:20:42.337Z,95794.66
2018-05-26T15:23:11.442Z,95798.12
2018-05-26T15:25:40.530Z,95789.04
2018-05-26T15:28:09.629Z,95786.98
2018-05-26T15:30:38.770Z,95790.47
2018-05-26T15:33:07.848Z,95792.89
2018-05-26T15:35:36.895Z,95782.05
2018-05-26T15:38:06.227Z,95784.25
2018-05-26T15:40:35.371Z,95788.08
2018-05-26T15:43:04.447Z,95786.73
2018-05-26T15:48:09.388Z,95782.80
2018-05-26T15:50:38.542Z,95785.20
2018-05-26T15:53:07.634Z,95783.41
2018-05-26T15:55:36.701Z,95777.99
2018-05-26T15:58:05.756Z,95789.73
2018-05-26T16:03:10.618Z,95786.20
2018-05-26T16:05:40.199Z,95786.70
2018-05-26T16:08:09.286Z,95778.56
2018-05-26T16:10:38.399Z,95782.44
2018-05-26T16:13:07.503Z,95790.34
2018-05-26T16:15:36.579Z,95791.21
2018-05-26T16:18:05.704Z,95792.56
2018-05-26T16:20:34.765Z,95792.28
2018-05-26T16:25:39.686Z,95794.85
2018-05-26T16:28:09.751Z,95799.35
2018-05-26T16:30:38.855Z,95800.92
2018-05-26T16:33:07.955Z,95800.50
2018-05-26T16:35:37.057Z,95799.28
2018-05-26T16:38:06.098Z,95798.25
2018-05-26T16:40:35.238Z,95794.11
2018-05-26T16:43:04.286Z,95795.48
2018-05-26T16:45:33.330Z,95791.81
2018-05-26T16:48:02.483Z,95799.41
2018-05-26T16:50:31.580Z,95795.68
2018-05-26T16:53:00.608Z,95803.00
2018-05-26T16:55:29.710Z,95802.23
2018-05-26T16:57:58.728Z,95800.20
2018-05-26T17:00:27.782Z,95800.59
2018-05-26T17:02:56.822Z,95800.34
2018-05-26T17:05:25.884Z,95804.06
2018-05-26T17:07:54.967Z,95806.16
2018-05-26T17:10:24.092Z,95802.09
2018-05-26T17:12:53.214Z,95804.52
2018-05-26T17:15:22.266Z,95798.59
2018-05-26T17:17:51.370Z,95803.40
2018-05-26T17:22:56.736Z,95801.56
2018-05-26T17:28:01.605Z,95808.78
2018-05-26T17:30:30.662Z,95805.32
2018-05-26T17:32:59.716Z,95804.48
2018-05-26T17:35:28.757Z,95803.34
2018-05-26T17:37:57.825Z,95808.94
2018-05-26T17:40:26.879Z,95813.12
2018-05-26T17:42:55.924Z,95813.45
2018-05-26T17:45:24.961Z,95816.43
2018-05-26T17:47:54.005Z,95818.67
2018-05-26T17:50:23.061Z,95821.78
2018-05-26T17:52:52.098Z,95820.88
2018-05-26T17:55:21.153Z,95818.61
2018-05-26T17:57:50.199Z,95816.72
2018-05-26T18:00:19.601Z,95821.05
2018-05-26T18:02:49.534Z,95816.86
2018-05-26T18:05:19.377Z,95817.22
2018-05-26T18:07:48.394Z,95824.14
2018-05-26T18:10:18.766Z,95824.37
2018-05-26T18:12:47.811Z,95826.38
2018-05-26T18:15:18.120Z,95824.37
2018-05-26T18:17:47.189Z,95818.62
2018-05-26T18:20:16.490Z,95822.19
2018-05-26T18:22:45.517Z,95825.91
2018-05-26T18:25:14.783Z,95831.80
2018-05-26T18:27:43.843Z,95826.88
2018-05-26T18:30:12.891Z,95830.98
2018-05-26T18:32:41.992Z,95838.34
2018-05-26T18:35:11.001Z,95840.13
2018-05-26T18:37:40.054Z,95848.22
2018-05-26T18:40:09.542Z,95849.43
2018-05-26T18:47:50.396Z,95849.88
2018-05-26T18:50:21.798Z,95857.73
2018-05-26T18:52:50.890Z,95856.17
2018-05-26T18:55:20.920Z,95860.17
2018-05-26T18:57:49.998Z,95865.16
2018-05-26T19:00:20.803Z,95865.04
2018-05-26T19:02:49.856Z,95870.06
2018-05-26T19:07:55.673Z,95866.88
2018-05-26T19:10:27.875Z,95872.77
2018-05-26T19:12:56.938Z,95877.91
2018-05-26T19:20:56.566Z,95886.91
2018-05-26T19:23:25.772Z,95887.91
2018-05-26T19:25:54.831Z,95893.72
2018-05-26T19:28:28.740Z,95895.67
2018-05-26T19:30:57.878Z,95898.19
2018-05-26T19:33:27.118Z,95893.62
2018-05-26T19:35:56.244Z,95893.45
2018-05-26T19:38:32.105Z,95895.67
2018-05-26T19:41:18.320Z,95899.84
2018-05-26T19:43:55.973Z,95895.17
2018-05-26T19:46:47.023Z,95896.17
2018-05-26T19:49:28.004Z,95892.17
2018-05-26T19:52:19.774Z,95890.66
2018-05-26T19:55:01.237Z,95894.86
2018-05-26T19:57:51.903Z,95899.75
2018-05-26T20:00:35.666Z,95898.12
2018-05-26T20:05:50.295Z,95903.30
2018-05-26T20:13:50.502Z,95914.91
2018-05-26T20:16:30.589Z,95916.64
2018-05-26T20:19:12.258Z,95921.45
2018-05-26T20:21:53.214Z,95915.31
2018-05-26T20:24:41.227Z,95916.41
2018-05-26T20:30:00.289Z,95914.03
2018-05-26T20:32:46.261Z,95911.42
2018-05-26T20:35:23.352Z,95908.23
2018-05-26T20:38:00.028Z,95911.70
2018-05-26T20:40:36.592Z,95918.10
2018-05-26T20:45:52.144Z,95923.98
2018-05-26T20:51:26.312Z,95916.83
2018-05-26T20:54:09.856Z,95917.56
2018-05-26T20:56:51.791Z,95922.09
2018-05-26T20:59:31.129Z,95916.50
2018-05-26T21:02:13.716Z,95916.16
2018-05-26T21:04:57.840Z,95911.09
2018-05-26T21:07:41.435Z,95910.38
2018-05-26T21:10:10.739Z,95906.34
2018-05-26T21:12:39.946Z,95916.97
2018-05-26T21:15:11.285Z,95918.80
2018-05-26T21:17:40.319Z,95921.83
2018-05-26T21:20:09.436Z,95923.77
2018-05-26T21:25:19.910Z,95924.04
2018-05-26T21:27:49.944Z,95927.08
2018-05-26T21:30:29.397Z,95924.70
2018-05-26T21:32:58.935Z,95931.56
2018-05-26T21:35:37.244Z,95924.30
2018-05-26T21:38:10.085Z,95924.29
2018-05-26T21:40:39.434Z,95927.74
2018-05-26T21:43:08.868Z,95931.83
2018-05-26T21:45:39.851Z,95936.27
2018-05-26T21:48:12.531Z,95934.22
2018-05-26T21:50:41.763Z,95935.23
2018-05-26T21:53:11.077Z,95937.70
2018-05-26T21:55:40.269Z,95941.39
2018-05-26T22:00:45.641Z,95946.16
2018-05-26T22:05:51.043Z,95948.77
2018-05-26T22:08:20.054Z,95954.84
2018-05-26T22:10:49.129Z,95957.09
2018-05-26T22:13:36.185Z,95955.52
2018-05-26T22:16:05.262Z,95955.20
2018-05-26T22:18:35.281Z,95959.55
2018-05-26T22:21:04.349Z,95956.52
2018-05-26T22:23:36.874Z,95958.83
2018-05-26T22:26:05.920Z,95959.20
2018-05-26T22:28:40.657Z,95957.31
2018-05-26T22:31:09.732Z,95946.48
2018-05-26T22:36:14.770Z,95935.19
2018-05-26T22:38:45.950Z,95938.92
2018-05-26T22:41:15.126Z,95942.90
2018-05-26T22:44:02.658Z,95943.87
2018-05-26T22:46:31.741Z,95947.08
2018-05-26T22:49:00.830Z,95940.47
2018-05-26T22:54:06.125Z,95934.41
2018-05-26T22:56:35.575Z,95939.36
2018-05-26T22:59:04.618Z,95939.19
2018-05-26T23:01:33.687Z,95940.45
2018-05-26T23:04:02.765Z,95937.17
2018-05-26T23:06:32.750Z,95932.35
2018-05-26T23:09:01.831Z,95929.02
2018-05-26T23:11:30.923Z,95935.41
2018-05-26T23:14:00.931Z,95930.19
2018-05-26T23:16:33.307Z,95935.92
2018-05-26T23:19:02.360Z,95923.23
2018-05-26T23:21:40.246Z,95919.20
2018-05-26T23:24:09.331Z,95912.78
2018-05-26T23:26:42.006Z,95914.48
2018-05-26T23:29:11.091Z,95912.05
2018-05-26T23:34:16.550Z,95904.61
2018-05-26T23:36:51.069Z,95902.19
2018-05-26T23:39:21.470Z,95896.92
2018-05-26T23:41:51.443Z,95897.58
2018-05-26T23:44:25.981Z,95895.67
2018-05-26T23:46:55.085Z,95891.75
2018-05-26T23:49:26.001Z,95891.92
2018-05-26T23:54:36.286Z,95898.66
2018-05-26T23:57:05.337Z,95898.88
2018-05-26T23:59:35.321Z,95897.20
